createdAt,value
2023-02-15T00:00:38.639Z,-1.5
2023-02-15T00:05:21.926Z,-1.5
2023-02-15T00:10:28.107Z,-1.5
2023-02-15T00:15:34.420Z,-1.5
2023-02-15T00:20:23.423Z,-1.5
2023-02-15T00:25:29.343Z,-1.4
2023-02-15T00:30:18.366Z,-1.4
2023-02-15T00:35:24.363Z,-1.4
2023-02-15T00:40:31.268Z,-1.3
2023-02-15T00:45:18.716Z,-1.3
2023-02-15T00:50:24.991Z,-1.3
2023-02-15T00:55:30.895Z,-1.3
2023-02-15T01:00:23.483Z,-1.3
2023-02-15T01:05:25.570Z,-1.3
2023-02-15T01:10:31.569Z,-1.4
2023-02-15T01:15:20.322Z,-1.4
2023-02-15T01:20:27.976Z,-1.4
2023-02-15T01:25:32.618Z,-1.4
2023-02-15T01:30:21.556Z,-1.4
2023-02-15T01:35:27.736Z,-1.4
2023-02-15T01:40:34.326Z,-1.4
2023-02-15T01:45:22.083Z,-1.5
2023-02-15T01:50:28.426Z,-1.5
2023-02-15T01:55:17.532Z,-1.5
2023-02-15T02:00:26.101Z,-1.5
2023-02-15T02:05:29.799Z,-1.5
2023-02-15T02:10:18.715Z,-1.5
2023-02-15T02:15:24.772Z,-1.5
2023-02-15T02:20:31.329Z,-1.5
2023-02-15T02:25:20.149Z,-1.6
2023-02-15T02:30:26.370Z,-1.6
2023-02-15T02:35:32.237Z,-1.6
2023-02-15T02:40:22.191Z,-1.6
2023-02-15T02:45:26.601Z,-1.6
2023-02-15T02:50:33.134Z,-1.6
2023-02-15T02:55:21.904Z,-1.7
2023-02-15T03:00:31.397Z,-1.7
2023-02-15T03:05:33.463Z,-1.7
2023-02-15T03:10:22.463Z,-1.8
2023-02-15T03:15:28.706Z,-1.8
2023-02-15T03:20:18.135Z,-1.8
2023-02-15T03:25:23.623Z,-1.9
2023-02-15T03:30:29.809Z,-1.9
2023-02-15T03:35:18.642Z,-1.9
2023-02-15T03:40:24.845Z,-2.0
2023-02-15T03:45:30.324Z,-2.0
2023-02-15T03:50:19.397Z,-2.0
2023-02-15T03:55:25.565Z,-2.0
2023-02-15T04:00:35.010Z,-2.0
2023-02-15T04:05:21.539Z,-2.0
2023-02-15T04:10:27.062Z,-2.0
2023-02-15T04:15:33.125Z,-2.0
2023-02-15T04:20:22.095Z,-2.0
2023-02-15T04:25:28.015Z,-2.1
2023-02-15T04:30:34.816Z,-2.1
2023-02-15T04:35:23.099Z,-2.1
2023-02-15T04:40:28.937Z,-2.1
2023-02-15T04:45:18.116Z,-2.0
2023-02-15T04:50:24.137Z,-2.0
2023-02-15T04:55:30.175Z,-2.0
2023-02-15T05:00:21.255Z,-2.0
2023-02-15T05:05:24.566Z,-2.0
2023-02-15T05:10:30.627Z,-2.1
2023-02-15T05:15:19.656Z,-2.1
2023-02-15T05:20:25.790Z,-2.0
2023-02-15T05:25:33.391Z,-2.0
2023-02-15T05:30:20.991Z,-2.0
2023-02-15T05:35:26.795Z,-2.0
2023-02-15T05:40:32.885Z,-1.9
2023-02-15T05:45:21.700Z,-1.9
2023-02-15T05:50:27.688Z,-1.8
2023-02-15T05:55:33.740Z,-1.8
2023-02-15T06:00:28.384Z,-1.8
2023-02-15T06:05:34.615Z,-1.8
2023-02-15T06:10:17.154Z,-1.9
2023-02-15T06:15:23.617Z,-1.9
2023-02-15T06:20:31.044Z,-1.9
2023-02-15T06:25:18.426Z,-1.9
2023-02-15T06:30:24.536Z,-2.0
2023-02-15T06:35:30.692Z,-2.0
2023-02-15T06:40:20.184Z,-2.0
2023-02-15T06:45:26.427Z,-2.0
2023-02-15T06:50:32.133Z,-2.0
2023-02-15T06:55:21.178Z,-2.0
2023-02-15T07:00:31.258Z,-2.0
2023-02-15T07:05:32.786Z,-2.0
2023-02-15T07:10:21.892Z,-2.0
2023-02-15T07:15:28.006Z,-2.0
2023-02-15T07:20:37.419Z,-2.0
2023-02-15T07:25:22.781Z,-2.1
2023-02-15T07:30:28.869Z,-2.1
2023-02-15T07:35:18.225Z,-2.1
2023-02-15T07:40:23.499Z,-2.1
2023-02-15T07:45:29.841Z,-2.1
2023-02-15T07:50:18.808Z,-2.0
2023-02-15T07:55:24.831Z,-2.0
2023-02-15T08:00:32.803Z,-2.1
2023-02-15T08:05:20.308Z,-2.2
2023-02-15T08:10:25.985Z,-2.1
2023-02-15T08:15:32.407Z,-2.1
2023-02-15T08:20:21.450Z,-2.1
2023-02-15T08:25:27.513Z,-2.1
2023-02-15T08:30:36.177Z,-2.0
2023-02-15T08:35:23.250Z,-2.0
2023-02-15T08:40:28.148Z,-2.0
2023-02-15T08:45:34.420Z,-2.0
2023-02-15T08:50:23.186Z,-1.9
2023-02-15T08:55:29.309Z,-1.9
2023-02-15T09:00:21.931Z,-2.0
2023-02-15T09:05:23.836Z,-2.0
2023-02-15T09:10:29.765Z,-2.0
2023-02-15T09:15:18.881Z,-1.9
2023-02-15T09:20:26.071Z,-1.8
2023-02-15T09:25:30.979Z,-1.7
2023-02-15T09:30:20.056Z,-1.7
2023-02-15T09:35:25.969Z,-1.7
2023-02-15T09:40:31.523Z,-1.7
2023-02-15T09:45:20.657Z,-1.7
2023-02-15T09:50:26.383Z,-1.6
2023-02-15T09:55:33.038Z,-1.4
2023-02-15T10:00:25.987Z,-1.5
2023-02-15T10:05:28.690Z,-1.5
2023-02-15T10:10:34.015Z,-1.4
2023-02-15T10:15:23.293Z,-1.4
2023-02-15T10:20:29.536Z,-1.4
2023-02-15T10:25:18.496Z,-1.3
2023-02-15T10:30:24.566Z,-1.2
2023-02-15T10:35:30.498Z,-1.3
2023-02-15T10:40:19.476Z,-1.2
2023-02-15T10:45:25.057Z,-1.2
2023-02-15T10:50:31.066Z,-1.1
2023-02-15T10:55:20.395Z,-1.1
2023-02-15T11:00:27.805Z,-1.1
2023-02-15T11:05:31.983Z,-1.2
2023-02-15T11:10:21.123Z,-1.1
2023-02-15T11:15:27.118Z,-1.1
2023-02-15T11:20:35.518Z,-1.1
2023-02-15T11:25:21.852Z,-1.2
2023-02-15T11:30:29.732Z,-1.2
2023-02-15T11:35:34.064Z,-1.1
2023-02-15T11:40:22.694Z,-1.0
2023-02-15T11:45:29.133Z,-1.0
2023-02-15T11:50:17.708Z,-0.9
2023-02-15T11:55:23.571Z,-0.9
2023-02-15T12:00:32.372Z,-0.9
2023-02-15T12:05:19.337Z,-0.8
2023-02-15T12:10:25.025Z,-0.8
2023-02-15T12:15:30.978Z,-0.8
2023-02-15T12:20:22.012Z,-0.7
2023-02-15T12:25:26.228Z,-0.7
2023-02-15T12:30:32.694Z,-0.7
2023-02-15T12:35:21.608Z,-0.6
2023-02-15T12:40:30.920Z,-0.6
2023-02-15T12:45:33.587Z,-0.5
2023-02-15T12:50:22.192Z,-0.5
2023-02-15T12:55:28.121Z,-0.5
2023-02-15T13:00:35.269Z,-0.4
2023-02-15T13:05:22.661Z,-0.3
2023-02-15T13:10:28.389Z,-0.2
2023-02-15T13:15:18.364Z,-0.4
2023-02-15T13:20:25.114Z,-0.2
2023-02-15T13:25:29.646Z,-0.2
2023-02-15T13:30:18.903Z,-0.1
2023-02-15T13:35:24.810Z,-0.1
2023-02-15T13:40:30.846Z,-0.1
2023-02-15T13:45:19.454Z,0.0
2023-02-15T13:50:25.391Z,-0.0
2023-02-15T13:55:31.432Z,0.0
2023-02-15T14:00:22.214Z,0.2
2023-02-15T14:05:27.526Z,0.0
2023-02-15T14:10:34.913Z,-0.1
2023-02-15T14:15:22.237Z,-0.0
2023-02-15T14:20:28.816Z,-0.1
2023-02-15T14:25:34.626Z,-0.1
2023-02-15T14:30:23.594Z,-0.1
2023-02-15T14:35:29.661Z,-0.1
2023-02-15T14:40:18.393Z,-0.3
2023-02-15T14:45:25.091Z,-0.2
2023-02-15T14:50:30.141Z,-0.2
2023-02-15T14:55:18.926Z,-0.2
2023-02-15T15:00:29.828Z,-0.3
2023-02-15T15:05:31.330Z,-0.3
2023-02-15T15:10:19.872Z,-0.3
2023-02-15T15:15:26.416Z,-0.4
2023-02-15T15:20:32.669Z,-0.4
2023-02-15T15:25:20.959Z,-0.3
2023-02-15T15:30:27.203Z,-0.3
2023-02-15T15:35:33.164Z,-0.4
2023-02-15T15:40:22.378Z,-0.4
2023-02-15T15:45:28.020Z,-0.4
2023-02-15T15:50:34.015Z,-0.3
2023-02-15T15:55:22.885Z,-0.4
2023-02-15T16:00:34.953Z,-0.4
2023-02-15T16:05:17.716Z,-0.4
2023-02-15T16:10:23.298Z,-0.4
2023-02-15T16:15:29.726Z,-0.4
2023-02-15T16:20:19.640Z,-0.5
2023-02-15T16:25:24.540Z,-0.5
2023-02-15T16:30:30.649Z,-0.6
2023-02-15T16:35:19.713Z,-0.6
2023-02-15T16:40:25.631Z,-0.6
2023-02-15T16:45:31.230Z,-0.6
2023-02-15T16:50:20.405Z,-0.7
2023-02-15T16:55:26.602Z,-0.7
2023-02-15T17:00:35.289Z,-0.8
2023-02-15T17:05:21.960Z,-0.8
2023-02-15T17:10:27.807Z,-0.8
2023-02-15T17:15:33.844Z,-0.8
2023-02-15T17:20:23.420Z,-0.8
2023-02-15T17:25:29.406Z,-0.9
2023-02-15T17:30:19.559Z,-0.9
2023-02-15T17:35:25.410Z,-1.0
2023-02-15T17:40:30.784Z,-1.0
2023-02-15T17:45:19.561Z,-0.9
2023-02-15T17:50:26.616Z,-0.9
2023-02-15T17:55:32.412Z,-0.9
2023-02-15T18:00:22.875Z,-1.0
2023-02-15T18:05:28.550Z,-1.1
2023-02-15T18:10:38.102Z,-1.2
2023-02-15T18:15:22.348Z,-1.2
2023-02-15T18:20:28.518Z,-1.2
2023-02-15T18:25:33.818Z,-1.2
2023-02-15T18:30:23.174Z,-1.2
2023-02-15T18:35:29.639Z,-1.2
2023-02-15T18:40:18.641Z,-1.3
2023-02-15T18:45:24.237Z,-1.3
2023-02-15T18:50:30.624Z,-1.3
2023-02-15T18:55:19.067Z,-1.3
2023-02-15T19:00:27.165Z,-1.4
2023-02-15T19:05:32.432Z,-1.4
2023-02-15T19:10:23.552Z,-1.4
2023-02-15T19:15:27.499Z,-1.5
2023-02-15T19:20:35.050Z,-1.5
2023-02-15T19:25:22.752Z,-1.5
2023-02-15T19:30:28.334Z,-1.5
2023-02-15T19:35:34.329Z,-1.5
2023-02-15T19:40:22.584Z,-1.5
2023-02-15T19:45:29.254Z,-1.6
2023-02-15T19:50:34.885Z,-1.6
2023-02-15T19:55:23.488Z,-1.6
2023-02-15T20:00:33.137Z,-1.7
2023-02-15T20:05:18.459Z,-1.8
2023-02-15T20:10:29.364Z,-1.8
2023-02-15T20:15:30.561Z,-1.8
2023-02-15T20:20:21.642Z,-1.7
2023-02-15T20:25:25.650Z,-1.7
2023-02-15T20:30:31.996Z,-1.7
2023-02-15T20:35:20.736Z,-1.8
2023-02-15T20:40:26.505Z,-1.9
2023-02-15T20:45:32.389Z,-1.9
2023-02-15T20:50:20.931Z,-1.9
2023-02-15T20:55:27.955Z,-1.9
2023-02-15T21:00:36.537Z,-1.9
2023-02-15T21:05:23.051Z,-1.9
2023-02-15T21:10:29.134Z,-1.9
2023-02-15T21:15:36.426Z,-1.8
2023-02-15T21:20:26.280Z,-1.8
2023-02-15T21:25:30.026Z,-1.9
2023-02-15T21:30:19.507Z,-1.9
2023-02-15T21:35:24.899Z,-2.0
2023-02-15T21:40:31.203Z,-2.0
2023-02-15T21:45:19.799Z,-2.1
2023-02-15T21:50:26.338Z,-2.1
2023-02-15T21:55:32.724Z,-2.1
2023-02-15T22:00:21.910Z,-2.1
2023-02-15T22:05:27.119Z,-2.1
2023-02-15T22:10:35.306Z,-2.0
2023-02-15T22:15:21.576Z,-2.1
2023-02-15T22:20:28.063Z,-2.0
2023-02-15T22:25:34.018Z,-2.1
2023-02-15T22:30:22.631Z,-2.1
2023-02-15T22:35:29.227Z,-2.1
2023-02-15T22:40:35.258Z,-2.1
2023-02-15T22:45:23.951Z,-2.0
2023-02-15T22:50:30.686Z,-2.0
2023-02-15T22:55:19.153Z,-2.0
2023-02-15T23:00:30.374Z,-2.0
2023-02-15T23:05:31.654Z,-2.1
2023-02-15T23:10:22.925Z,-2.1
2023-02-15T23:15:26.284Z,-2.1
2023-02-15T23:20:33.706Z,-2.1
2023-02-15T23:25:20.746Z,-2.2
2023-02-15T23:30:27.315Z,-2.2
2023-02-15T23:35:33.618Z,-2.2
2023-02-15T23:40:23.323Z,-2.2
2023-02-15T23:45:27.692Z,-2.3
2023-02-15T23:50:33.801Z,-2.3
2023-02-15T23:55:23.080Z,-2.3
